Terminal Aerodrome Forecast
Issued by NWS North Platte, NE

Home | Current Version | Previous Version | Text Only | Print | Product List | Glossary Off
Versions: 1 2 3 4 5 6 7 8 9 10 11 12 13 14

000
FTUS43 KLBF 202300
TAFVTN
TAF
KVTN 202340Z 2100/2124 30010KT P6SM BKN100
     FM210500 34015G22KT P6SM SKC
     FM211000 32012KT P6SM BKN120
     FM211700 34013G20KT P6SM SKC=

USA.gov is the U.S. government's official web portal to all federal, state and local government web resources and services.